TimeEDT,TemperatureF,Dew PointF,Humidity,Sea Level PressureIn,VisibilityMPH,Wind Direction,Wind SpeedMPH,Gust SpeedMPH,PrecipitationIn,Events,Conditions,WindDirDegrees,DateUTC
12:53 AM,53.1,48.0,83,29.89,10.0,Calm,Calm,-,N/A,,Clear,0,2012-05-31 04:53:00
1:53 AM,53.1,46.9,80,29.88,10.0,North,3.5,-,N/A,,Clear,360,2012-05-31 05:53:00
2:53 AM,53.1,46.9,80,29.89,10.0,Calm,Calm,-,N/A,,Clear,0,2012-05-31 06:53:00
3:53 AM,52.0,46.0,80,29.90,10.0,Calm,Calm,-,N/A,,Clear,0,2012-05-31 07:53:00
4:53 AM,52.0,46.9,83,29.88,10.0,Calm,Calm,-,N/A,,Clear,0,2012-05-31 08:53:00
5:53 AM,54.0,46.9,77,29.88,10.0,East,3.5,-,N/A,,Clear,80,2012-05-31 09:53:00
6:53 AM,54.0,48.0,80,29.88,10.0,ENE,5.8,-,N/A,,Clear,70,2012-05-31 10:53:00
7:53 AM,57.0,48.0,72,29.90,10.0,ENE,3.5,-,N/A,,Clear,60,2012-05-31 11:53:00
8:53 AM,61.0,48.0,62,29.89,10.0,East,10.4,-,N/A,,Clear,100,2012-05-31 12:53:00
9:53 AM,64.9,50.0,58,29.88,10.0,East,10.4,-,N/A,,Clear,90,2012-05-31 13:53:00
10:53 AM,68.0,51.1,55,29.86,10.0,SE,10.4,-,N/A,,Clear,140,2012-05-31 14:53:00
11:53 AM,69.1,52.0,54,29.84,10.0,SE,6.9,-,N/A,,Partly Cloudy,130,2012-05-31 15:53:00
12:53 PM,70.0,53.1,55,29.82,10.0,East,9.2,-,N/A,,Clear,100,2012-05-31 16:53:00
1:53 PM,75.9,54.0,46,29.78,10.0,ESE,11.5,18.4,N/A,,Clear,110,2012-05-31 17:53:00
2:53 PM,77.0,52.0,42,29.75,10.0,SE,10.4,-,N/A,,Mostly Cloudy,130,2012-05-31 18:53:00
3:53 PM,77.0,51.1,40,29.71,10.0,SE,11.5,-,N/A,,Scattered Clouds,130,2012-05-31 19:53:00
4:40 PM,73.4,51.8,47,29.75,10.0,WNW,11.5,17.3,0.00,Rain-Thunderstorm,Light Thunderstorms and Rain,300,2012-05-31 20:40:00
4:47 PM,69.8,55.4,60,29.76,1.8,WNW,12.7,20.7,0.03,Rain-Thunderstorm,Light Thunderstorms and Rain,300,2012-05-31 20:47:00
4:53 PM,66.0,59.0,78,29.77,1.2,WNW,10.4,19.6,0.09,Rain-Thunderstorm,Light Thunderstorms and Rain,300,2012-05-31 20:53:00
5:06 PM,62.6,60.8,94,29.77,3.0,Calm,Calm,-,0.04,Rain-Thunderstorm,Light Thunderstorms and Rain,0,2012-05-31 21:06:00
5:25 PM,64.4,60.8,88,29.74,10.0,NE,3.5,-,0.06,Rain,Light Rain,50,2012-05-31 21:25:00
5:53 PM,64.0,62.1,93,29.72,10.0,East,5.8,-,0.10,Rain,Light Rain,100,2012-05-31 21:53:00
6:53 PM,64.0,61.0,90,29.68,10.0,East,4.6,-,0.00,,Overcast,80,2012-05-31 22:53:00
7:53 PM,64.9,61.0,87,29.68,10.0,ENE,3.5,-,N/A,,Mostly Cloudy,70,2012-05-31 23:53:00
8:53 PM,64.0,61.0,90,29.68,10.0,NNE,5.8,-,N/A,,Scattered Clouds,20,2012-06-01 00:53:00
9:05 PM,64.4,60.8,88,29.69,10.0,NNE,5.8,-,N/A,,Mostly Cloudy,30,2012-06-01 01:05:00
9:33 PM,62.6,60.8,94,29.68,10.0,ENE,6.9,-,N/A,,Overcast,60,2012-06-01 01:33:00
9:41 PM,62.6,60.8,94,29.68,10.0,NE,4.6,-,N/A,,Mostly Cloudy,50,2012-06-01 01:41:00
9:53 PM,63.0,61.0,93,29.67,10.0,NE,4.6,-,N/A,,Mostly Cloudy,40,2012-06-01 01:53:00
10:15 PM,62.6,60.8,94,29.70,6.0,North,4.6,-,N/A,,Mostly Cloudy,360,2012-06-01 02:15:00
10:53 PM,63.0,60.1,90,29.69,7.0,Calm,Calm,-,N/A,,Overcast,0,2012-06-01 02:53:00
11:53 PM,62.1,60.1,93,29.68,4.0,Calm,Calm,-,N/A,,Overcast,0,2012-06-01 03:53:00